Halkirk, Canada
Current Conditions -  °F | °C
As of 8:00 PM on Thursday 18 Dec 2014 (Local Time) from CYQF Reporting Station
Clear Clear  
Wind Chill: 13°   Ceiling: Unl
Heat Index: 19°   Visibility: 15mi
Dew Point: 19°   Wind: 5mph
Humidity: 100%   Direction: 180°S
Pressure: 29.79"   Gusts: NA
Location:  52.28°N, 112.15°W
Report Text: CYQF 190300Z 18004KT 15SM SKC M07/M07 A2979 RMK SLP148
Loading
Personal Weather Stations






























Interactive Weather Map New forecast layout! Learn more

10-Day Weather Forecast

Advertisements
Track Severe Weather on mobile